sensor_id;sensor_type;location;lat;lon;timestamp;P1;durP1;ratioP1;P2;durP2;ratioP2
69463;SDS011;56665;41.106;16.688;2023-02-28T00:00:48;10.00;;;4.55;;
69463;SDS011;56665;41.106;16.688;2023-02-28T00:03:53;10.35;;;4.47;;
69463;SDS011;56665;41.106;16.688;2023-02-28T00:06:58;11.60;;;4.50;;
69463;SDS011;56665;41.106;16.688;2023-02-28T00:10:03;9.65;;;4.18;;
69463;SDS011;56665;41.106;16.688;2023-02-28T00:13:09;9.10;;;4.50;;
69463;SDS011;56665;41.106;16.688;2023-02-28T00:16:15;9.13;;;3.85;;
69463;SDS011;56665;41.106;16.688;2023-02-28T00:19:24;7.38;;;4.50;;
69463;SDS011;56665;41.106;16.688;2023-02-28T00:22:27;10.70;;;3.93;;
69463;SDS011;56665;41.106;16.688;2023-02-28T00:25:31;10.50;;;4.32;;
69463;SDS011;56665;41.106;16.688;2023-02-28T00:28:35;8.18;;;3.95;;
69463;SDS011;56665;41.106;16.688;2023-02-28T00:31:40;16.55;;;4.63;;
69463;SDS011;56665;41.106;16.688;2023-02-28T00:34:44;11.07;;;4.40;;
69463;SDS011;56665;41.106;16.688;2023-02-28T00:37:48;10.60;;;4.10;;
69463;SDS011;56665;41.106;16.688;2023-02-28T00:40:52;12.73;;;4.45;;
69463;SDS011;56665;41.106;16.688;2023-02-28T00:43:57;9.13;;;4.30;;
69463;SDS011;56665;41.106;16.688;2023-02-28T00:47:01;9.05;;;3.75;;
69463;SDS011;56665;41.106;16.688;2023-02-28T00:50:05;8.60;;;4.28;;
69463;SDS011;56665;41.106;16.688;2023-02-28T00:53:09;9.13;;;3.63;;
69463;SDS011;56665;41.106;16.688;2023-02-28T00:56:13;12.00;;;3.78;;
69463;SDS011;56665;41.106;16.688;2023-02-28T00:59:18;9.43;;;3.85;;
69463;SDS011;56665;41.106;16.688;2023-02-28T01:02:22;7.45;;;3.45;;
69463;SDS011;56665;41.106;16.688;2023-02-28T01:05:26;8.02;;;3.50;;
69463;SDS011;56665;41.106;16.688;2023-02-28T01:08:30;8.67;;;3.90;;
69463;SDS011;56665;41.106;16.688;2023-02-28T01:11:34;9.25;;;3.70;;
69463;SDS011;56665;41.106;16.688;2023-02-28T01:14:38;7.55;;;3.60;;
69463;SDS011;56665;41.106;16.688;2023-02-28T01:17:42;8.35;;;3.75;;
69463;SDS011;56665;41.106;16.688;2023-02-28T01:20:46;9.70;;;4.13;;
69463;SDS011;56665;41.106;16.688;2023-02-28T01:23:49;8.83;;;3.63;;
69463;SDS011;56665;41.106;16.688;2023-02-28T01:26:54;11.00;;;4.18;;
69463;SDS011;56665;41.106;16.688;2023-02-28T01:29:58;9.07;;;3.97;;
69463;SDS011;56665;41.106;16.688;2023-02-28T01:33:01;9.65;;;3.58;;
69463;SDS011;56665;41.106;16.688;2023-02-28T01:36:07;6.38;;;3.50;;
69463;SDS011;56665;41.106;16.688;2023-02-28T01:39:13;8.10;;;4.03;;
69463;SDS011;56665;41.106;16.688;2023-02-28T01:42:17;7.68;;;3.28;;
69463;SDS011;56665;41.106;16.688;2023-02-28T01:45:30;8.70;;;3.85;;
69463;SDS011;56665;41.106;16.688;2023-02-28T01:48:36;8.52;;;3.53;;
69463;SDS011;56665;41.106;16.688;2023-02-28T01:51:47;10.90;;;3.75;;
69463;SDS011;56665;41.106;16.688;2023-02-28T01:54:58;7.13;;;3.70;;
69463;SDS011;56665;41.106;16.688;2023-02-28T01:58:04;6.60;;;3.88;;
69463;SDS011;56665;41.106;16.688;2023-02-28T02:01:09;7.65;;;3.55;;
69463;SDS011;56665;41.106;16.688;2023-02-28T02:04:26;6.57;;;3.42;;
69463;SDS011;56665;41.106;16.688;2023-02-28T02:07:35;7.32;;;3.97;;
69463;SDS011;56665;41.106;16.688;2023-02-28T02:10:51;7.67;;;3.80;;
69463;SDS011;56665;41.106;16.688;2023-02-28T02:20:46;7.68;;;3.83;;
69463;SDS011;56665;41.106;16.688;2023-02-28T02:31:12;8.65;;;4.18;;
69463;SDS011;56665;41.106;16.688;2023-02-28T02:34:39;9.20;;;5.40;;
69463;SDS011;56665;41.106;16.688;2023-02-28T02:41:14;10.70;;;6.50;;
69463;SDS011;56665;41.106;16.688;2023-02-28T02:47:49;9.55;;;4.88;;
69463;SDS011;56665;41.106;16.688;2023-02-28T02:50:54;9.32;;;5.57;;
69463;SDS011;56665;41.106;16.688;2023-02-28T02:57:34;8.77;;;4.55;;
69463;SDS011;56665;41.106;16.688;2023-02-28T03:00:50;7.90;;;3.97;;
69463;SDS011;56665;41.106;16.688;2023-02-28T03:03:57;6.65;;;3.70;;
69463;SDS011;56665;41.106;16.688;2023-02-28T03:07:02;7.93;;;4.28;;
69463;SDS011;56665;41.106;16.688;2023-02-28T03:10:27;10.15;;;3.83;;
69463;SDS011;56665;41.106;16.688;2023-02-28T03:17:16;8.63;;;4.10;;
69463;SDS011;56665;41.106;16.688;2023-02-28T03:20:58;7.38;;;3.72;;
69463;SDS011;56665;41.106;16.688;2023-02-28T03:24:32;8.13;;;3.78;;
69463;SDS011;56665;41.106;16.688;2023-02-28T03:31:27;11.93;;;4.53;;
69463;SDS011;56665;41.106;16.688;2023-02-28T03:34:51;9.70;;;3.90;;
69463;SDS011;56665;41.106;16.688;2023-02-28T03:38:24;7.47;;;3.80;;
69463;SDS011;56665;41.106;16.688;2023-02-28T03:41:36;9.05;;;4.05;;
69463;SDS011;56665;41.106;16.688;2023-02-28T03:44:48;6.15;;;2.92;;
69463;SDS011;56665;41.106;16.688;2023-02-28T03:47:54;5.97;;;3.25;;
69463;SDS011;56665;41.106;16.688;2023-02-28T03:51:04;5.60;;;3.50;;
69463;SDS011;56665;41.106;16.688;2023-02-28T03:54:13;6.90;;;3.83;;
69463;SDS011;56665;41.106;16.688;2023-02-28T03:57:38;7.53;;;3.80;;
69463;SDS011;56665;41.106;16.688;2023-02-28T04:00:48;6.30;;;3.47;;
69463;SDS011;56665;41.106;16.688;2023-02-28T04:03:58;9.45;;;3.28;;
69463;SDS011;56665;41.106;16.688;2023-02-28T04:07:03;8.73;;;3.50;;
69463;SDS011;56665;41.106;16.688;2023-02-28T04:10:09;6.78;;;3.33;;
69463;SDS011;56665;41.106;16.688;2023-02-28T04:13:14;7.35;;;4.30;;
69463;SDS011;56665;41.106;16.688;2023-02-28T04:16:18;7.50;;;4.10;;
69463;SDS011;56665;41.106;16.688;2023-02-28T04:19:22;8.77;;;3.90;;
69463;SDS011;56665;41.106;16.688;2023-02-28T04:22:28;7.97;;;3.90;;
69463;SDS011;56665;41.106;16.688;2023-02-28T04:25:32;7.75;;;3.75;;
69463;SDS011;56665;41.106;16.688;2023-02-28T04:28:36;6.90;;;3.47;;
69463;SDS011;56665;41.106;16.688;2023-02-28T04:31:41;8.60;;;3.88;;
69463;SDS011;56665;41.106;16.688;2023-02-28T04:34:45;7.18;;;3.92;;
69463;SDS011;56665;41.106;16.688;2023-02-28T04:37:49;9.50;;;4.30;;
69463;SDS011;56665;41.106;16.688;2023-02-28T04:40:53;8.98;;;4.85;;
69463;SDS011;56665;41.106;16.688;2023-02-28T04:43:56;10.38;;;4.82;;
69463;SDS011;56665;41.106;16.688;2023-02-28T04:47:01;8.48;;;3.90;;
69463;SDS011;56665;41.106;16.688;2023-02-28T04:50:05;9.20;;;3.90;;
69463;SDS011;56665;41.106;16.688;2023-02-28T04:53:09;9.53;;;4.20;;
69463;SDS011;56665;41.106;16.688;2023-02-28T04:56:14;8.90;;;3.55;;
69463;SDS011;56665;41.106;16.688;2023-02-28T04:59:19;7.20;;;3.65;;
69463;SDS011;56665;41.106;16.688;2023-02-28T05:02:23;6.13;;;3.08;;
69463;SDS011;56665;41.106;16.688;2023-02-28T05:05:27;6.68;;;3.60;;
69463;SDS011;56665;41.106;16.688;2023-02-28T05:08:31;6.67;;;3.57;;
69463;SDS011;56665;41.106;16.688;2023-02-28T05:11:35;6.45;;;3.80;;
69463;SDS011;56665;41.106;16.688;2023-02-28T05:14:43;7.15;;;3.38;;
69463;SDS011;56665;41.106;16.688;2023-02-28T05:17:47;6.82;;;3.60;;
69463;SDS011;56665;41.106;16.688;2023-02-28T05:20:51;7.15;;;3.72;;
69463;SDS011;56665;41.106;16.688;2023-02-28T05:23:56;6.53;;;3.90;;
69463;SDS011;56665;41.106;16.688;2023-02-28T05:27:02;7.50;;;4.00;;
69463;SDS011;56665;41.106;16.688;2023-02-28T05:30:08;9.57;;;4.78;;
69463;SDS011;56665;41.106;16.688;2023-02-28T05:33:13;9.88;;;4.40;;
69463;SDS011;56665;41.106;16.688;2023-02-28T05:36:17;9.32;;;3.95;;
69463;SDS011;56665;41.106;16.688;2023-02-28T05:39:23;10.77;;;5.03;;
69463;SDS011;56665;41.106;16.688;2023-02-28T05:42:26;13.23;;;5.78;;
69463;SDS011;56665;41.106;16.688;2023-02-28T05:45:30;9.48;;;5.95;;
69463;SDS011;56665;41.106;16.688;2023-02-28T05:48:35;12.23;;;6.57;;
69463;SDS011;56665;41.106;16.688;2023-02-28T05:51:40;14.05;;;7.80;;
69463;SDS011;56665;41.106;16.688;2023-02-28T05:54:46;14.57;;;9.00;;
69463;SDS011;56665;41.106;16.688;2023-02-28T05:57:50;16.17;;;9.52;;
69463;SDS011;56665;41.106;16.688;2023-02-28T06:00:53;16.15;;;9.88;;
69463;SDS011;56665;41.106;16.688;2023-02-28T06:03:58;17.33;;;9.73;;
69463;SDS011;56665;41.106;16.688;2023-02-28T06:07:07;22.00;;;11.98;;
69463;SDS011;56665;41.106;16.688;2023-02-28T06:10:12;22.73;;;12.60;;
69463;SDS011;56665;41.106;16.688;2023-02-28T06:13:16;22.60;;;12.95;;
69463;SDS011;56665;41.106;16.688;2023-02-28T06:16:19;24.65;;;14.68;;
69463;SDS011;56665;41.106;16.688;2023-02-28T06:19:23;23.35;;;14.45;;
69463;SDS011;56665;41.106;16.688;2023-02-28T06:22:31;23.73;;;14.75;;
69463;SDS011;56665;41.106;16.688;2023-02-28T06:25:35;22.77;;;12.80;;
69463;SDS011;56665;41.106;16.688;2023-02-28T06:28:39;20.95;;;11.90;;
69463;SDS011;56665;41.106;16.688;2023-02-28T06:31:44;24.13;;;12.25;;
69463;SDS011;56665;41.106;16.688;2023-02-28T06:34:52;23.08;;;11.95;;
69463;SDS011;56665;41.106;16.688;2023-02-28T06:37:56;21.83;;;11.63;;
69463;SDS011;56665;41.106;16.688;2023-02-28T06:41:01;22.50;;;11.90;;
69463;SDS011;56665;41.106;16.688;2023-02-28T06:44:05;20.60;;;10.70;;
69463;SDS011;56665;41.106;16.688;2023-02-28T06:47:15;21.02;;;10.68;;
69463;SDS011;56665;41.106;16.688;2023-02-28T06:50:19;23.02;;;12.52;;
69463;SDS011;56665;41.106;16.688;2023-02-28T06:53:23;26.10;;;14.50;;
69463;SDS011;56665;41.106;16.688;2023-02-28T06:56:27;25.77;;;14.37;;
69463;SDS011;56665;41.106;16.688;2023-02-28T06:59:30;24.00;;;14.23;;
69463;SDS011;56665;41.106;16.688;2023-02-28T07:02:36;29.65;;;16.27;;
69463;SDS011;56665;41.106;16.688;2023-02-28T07:05:40;29.38;;;18.38;;
69463;SDS011;56665;41.106;16.688;2023-02-28T07:08:45;33.75;;;19.17;;
69463;SDS011;56665;41.106;16.688;2023-02-28T07:11:49;35.20;;;19.40;;
69463;SDS011;56665;41.106;16.688;2023-02-28T07:14:53;30.30;;;17.60;;
69463;SDS011;56665;41.106;16.688;2023-02-28T07:17:59;31.30;;;17.85;;
69463;SDS011;56665;41.106;16.688;2023-02-28T07:21:03;27.23;;;15.35;;
69463;SDS011;56665;41.106;16.688;2023-02-28T07:24:09;24.83;;;13.07;;
69463;SDS011;56665;41.106;16.688;2023-02-28T07:27:14;22.17;;;12.17;;
69463;SDS011;56665;41.106;16.688;2023-02-28T07:30:26;16.95;;;10.52;;
69463;SDS011;56665;41.106;16.688;2023-02-28T07:33:32;22.08;;;10.60;;
69463;SDS011;56665;41.106;16.688;2023-02-28T07:36:37;20.33;;;11.40;;
69463;SDS011;56665;41.106;16.688;2023-02-28T07:39:41;18.88;;;10.98;;
69463;SDS011;56665;41.106;16.688;2023-02-28T07:42:45;19.03;;;9.97;;
69463;SDS011;56665;41.106;16.688;2023-02-28T07:45:53;19.65;;;10.52;;
69463;SDS011;56665;41.106;16.688;2023-02-28T07:48:58;16.45;;;9.75;;
69463;SDS011;56665;41.106;16.688;2023-02-28T07:52:04;18.35;;;10.23;;
69463;SDS011;56665;41.106;16.688;2023-02-28T07:55:09;20.40;;;11.00;;
69463;SDS011;56665;41.106;16.688;2023-02-28T07:58:14;21.67;;;11.30;;
69463;SDS011;56665;41.106;16.688;2023-02-28T08:01:18;21.77;;;11.48;;
69463;SDS011;56665;41.106;16.688;2023-02-28T08:04:23;17.48;;;10.10;;
69463;SDS011;56665;41.106;16.688;2023-02-28T08:07:27;16.80;;;9.65;;
69463;SDS011;56665;41.106;16.688;2023-02-28T08:10:31;16.38;;;9.35;;
69463;SDS011;56665;41.106;16.688;2023-02-28T08:13:37;15.73;;;9.97;;
69463;SDS011;56665;41.106;16.688;2023-02-28T08:16:42;19.55;;;10.48;;
69463;SDS011;56665;41.106;16.688;2023-02-28T08:19:46;19.95;;;11.32;;
69463;SDS011;56665;41.106;16.688;2023-02-28T08:22:50;16.75;;;8.95;;
69463;SDS011;56665;41.106;16.688;2023-02-28T08:25:55;12.88;;;7.20;;
69463;SDS011;56665;41.106;16.688;2023-02-28T08:28:59;10.97;;;5.80;;
69463;SDS011;56665;41.106;16.688;2023-02-28T08:32:03;10.77;;;5.70;;
69463;SDS011;56665;41.106;16.688;2023-02-28T08:35:09;10.18;;;5.88;;
69463;SDS011;56665;41.106;16.688;2023-02-28T08:38:13;11.13;;;5.60;;
69463;SDS011;56665;41.106;16.688;2023-02-28T08:41:18;12.05;;;5.82;;
69463;SDS011;56665;41.106;16.688;2023-02-28T08:44:22;12.50;;;6.20;;
69463;SDS011;56665;41.106;16.688;2023-02-28T08:47:25;10.13;;;5.68;;
69463;SDS011;56665;41.106;16.688;2023-02-28T08:50:29;10.80;;;6.10;;
69463;SDS011;56665;41.106;16.688;2023-02-28T08:53:33;12.43;;;6.28;;
69463;SDS011;56665;41.106;16.688;2023-02-28T08:56:38;14.88;;;7.72;;
69463;SDS011;56665;41.106;16.688;2023-02-28T08:59:42;13.70;;;7.80;;
69463;SDS011;56665;41.106;16.688;2023-02-28T09:02:46;13.85;;;7.90;;
69463;SDS011;56665;41.106;16.688;2023-02-28T09:05:54;13.23;;;7.88;;
69463;SDS011;56665;41.106;16.688;2023-02-28T09:09:00;14.52;;;7.47;;
69463;SDS011;56665;41.106;16.688;2023-02-28T09:12:05;14.15;;;7.20;;
69463;SDS011;56665;41.106;16.688;2023-02-28T09:15:09;14.10;;;8.70;;
69463;SDS011;56665;41.106;16.688;2023-02-28T09:18:14;16.77;;;8.98;;
69463;SDS011;56665;41.106;16.688;2023-02-28T09:21:19;16.95;;;9.90;;
69463;SDS011;56665;41.106;16.688;2023-02-28T09:24:23;15.88;;;10.10;;
69463;SDS011;56665;41.106;16.688;2023-02-28T09:27:27;13.55;;;9.05;;
69463;SDS011;56665;41.106;16.688;2023-02-28T09:30:31;15.73;;;8.00;;
69463;SDS011;56665;41.106;16.688;2023-02-28T09:33:35;13.07;;;7.93;;
69463;SDS011;56665;41.106;16.688;2023-02-28T09:36:38;12.57;;;7.57;;
69463;SDS011;56665;41.106;16.688;2023-02-28T09:39:43;11.50;;;6.82;;
69463;SDS011;56665;41.106;16.688;2023-02-28T09:42:48;15.13;;;9.07;;
69463;SDS011;56665;41.106;16.688;2023-02-28T09:45:55;13.77;;;8.17;;
69463;SDS011;56665;41.106;16.688;2023-02-28T09:49:17;13.77;;;8.27;;
69463;SDS011;56665;41.106;16.688;2023-02-28T09:52:29;16.50;;;10.57;;
69463;SDS011;56665;41.106;16.688;2023-02-28T09:55:42;15.88;;;10.65;;
69463;SDS011;56665;41.106;16.688;2023-02-28T09:58:56;11.25;;;7.45;;
69463;SDS011;56665;41.106;16.688;2023-02-28T10:09:39;7.05;;;4.80;;
69463;SDS011;56665;41.106;16.688;2023-02-28T10:12:44;9.15;;;4.63;;
69463;SDS011;56665;41.106;16.688;2023-02-28T10:15:51;8.90;;;4.00;;
69463;SDS011;56665;41.106;16.688;2023-02-28T10:19:14;11.00;;;6.33;;
69463;SDS011;56665;41.106;16.688;2023-02-28T10:25:59;11.77;;;6.70;;
69463;SDS011;56665;41.106;16.688;2023-02-28T10:29:09;18.70;;;7.97;;
69463;SDS011;56665;41.106;16.688;2023-02-28T10:32:14;19.45;;;9.60;;
69463;SDS011;56665;41.106;16.688;2023-02-28T10:35:24;16.33;;;9.73;;
69463;SDS011;56665;41.106;16.688;2023-02-28T10:38:33;16.58;;;9.63;;
69463;SDS011;56665;41.106;16.688;2023-02-28T10:41:42;15.95;;;7.60;;
69463;SDS011;56665;41.106;16.688;2023-02-28T10:44:46;14.77;;;7.75;;
69463;SDS011;56665;41.106;16.688;2023-02-28T10:48:02;12.40;;;7.10;;
69463;SDS011;56665;41.106;16.688;2023-02-28T10:51:27;11.70;;;7.30;;
69463;SDS011;56665;41.106;16.688;2023-02-28T10:54:39;14.95;;;7.90;;
69463;SDS011;56665;41.106;16.688;2023-02-28T10:57:44;14.85;;;8.27;;
69463;SDS011;56665;41.106;16.688;2023-02-28T11:00:48;15.05;;;8.38;;
69463;SDS011;56665;41.106;16.688;2023-02-28T11:03:53;14.82;;;8.07;;
69463;SDS011;56665;41.106;16.688;2023-02-28T11:07:01;13.80;;;7.77;;
69463;SDS011;56665;41.106;16.688;2023-02-28T11:10:16;12.10;;;6.65;;
69463;SDS011;56665;41.106;16.688;2023-02-28T11:13:28;14.48;;;8.20;;
69463;SDS011;56665;41.106;16.688;2023-02-28T11:16:37;18.20;;;9.65;;
69463;SDS011;56665;41.106;16.688;2023-02-28T11:19:46;68.88;;;41.70;;
69463;SDS011;56665;41.106;16.688;2023-02-28T11:22:53;29.13;;;16.70;;
69463;SDS011;56665;41.106;16.688;2023-02-28T11:25:59;17.38;;;10.98;;
69463;SDS011;56665;41.106;16.688;2023-02-28T11:29:10;15.50;;;8.98;;
69463;SDS011;56665;41.106;16.688;2023-02-28T11:32:37;15.93;;;8.82;;
69463;SDS011;56665;41.106;16.688;2023-02-28T11:35:51;16.50;;;8.48;;
69463;SDS011;56665;41.106;16.688;2023-02-28T11:39:07;15.73;;;9.50;;
69463;SDS011;56665;41.106;16.688;2023-02-28T11:45:54;17.00;;;8.25;;
69463;SDS011;56665;41.106;16.688;2023-02-28T11:52:35;22.00;;;11.77;;
69463;SDS011;56665;41.106;16.688;2023-02-28T11:55:56;22.57;;;11.43;;
69463;SDS011;56665;41.106;16.688;2023-02-28T12:17:06;17.58;;;9.27;;
69463;SDS011;56665;41.106;16.688;2023-02-28T12:20:30;18.23;;;8.95;;
69463;SDS011;56665;41.106;16.688;2023-02-28T12:27:05;16.65;;;9.48;;
69463;SDS011;56665;41.106;16.688;2023-02-28T12:30:17;22.00;;;11.13;;
69463;SDS011;56665;41.106;16.688;2023-02-28T12:33:28;18.45;;;11.10;;
69463;SDS011;56665;41.106;16.688;2023-02-28T12:36:39;27.35;;;14.40;;
69463;SDS011;56665;41.106;16.688;2023-02-28T12:39:45;30.67;;;15.95;;
69463;SDS011;56665;41.106;16.688;2023-02-28T12:42:59;32.45;;;17.30;;
69463;SDS011;56665;41.106;16.688;2023-02-28T12:46:20;28.60;;;15.33;;
69463;SDS011;56665;41.106;16.688;2023-02-28T12:49:33;17.90;;;9.63;;
69463;SDS011;56665;41.106;16.688;2023-02-28T12:56:27;11.55;;;7.00;;
69463;SDS011;56665;41.106;16.688;2023-02-28T12:59:48;11.30;;;6.43;;
69463;SDS011;56665;41.106;16.688;2023-02-28T13:10:04;15.48;;;9.10;;
69463;SDS011;56665;41.106;16.688;2023-02-28T13:13:21;15.27;;;7.03;;
69463;SDS011;56665;41.106;16.688;2023-02-28T13:16:26;12.40;;;7.10;;
69463;SDS011;56665;41.106;16.688;2023-02-28T13:19:57;12.30;;;6.57;;
69463;SDS011;56665;41.106;16.688;2023-02-28T13:23:04;12.88;;;6.22;;
69463;SDS011;56665;41.106;16.688;2023-02-28T13:27:10;14.13;;;5.80;;
69463;SDS011;56665;41.106;16.688;2023-02-28T13:34:34;11.00;;;5.03;;
69463;SDS011;56665;41.106;16.688;2023-02-28T13:37:35;10.40;;;4.67;;
69463;SDS011;56665;41.106;16.688;2023-02-28T13:40:41;9.68;;;4.68;;
69463;SDS011;56665;41.106;16.688;2023-02-28T13:47:23;13.77;;;5.32;;
69463;SDS011;56665;41.106;16.688;2023-02-28T13:50:37;15.40;;;6.70;;
69463;SDS011;56665;41.106;16.688;2023-02-28T13:53:56;18.03;;;6.13;;
69463;SDS011;56665;41.106;16.688;2023-02-28T14:07:38;11.07;;;5.60;;
69463;SDS011;56665;41.106;16.688;2023-02-28T14:10:48;12.47;;;5.57;;
69463;SDS011;56665;41.106;16.688;2023-02-28T14:14:07;11.35;;;5.30;;
69463;SDS011;56665;41.106;16.688;2023-02-28T14:17:14;11.57;;;5.65;;
69463;SDS011;56665;41.106;16.688;2023-02-28T14:20:21;17.48;;;6.72;;
69463;SDS011;56665;41.106;16.688;2023-02-28T14:23:35;18.70;;;8.90;;
69463;SDS011;56665;41.106;16.688;2023-02-28T14:37:04;13.55;;;6.68;;
69463;SDS011;56665;41.106;16.688;2023-02-28T14:40:15;15.80;;;5.60;;
69463;SDS011;56665;41.106;16.688;2023-02-28T14:43:23;10.50;;;5.97;;
69463;SDS011;56665;41.106;16.688;2023-02-28T14:46:36;18.00;;;6.50;;
69463;SDS011;56665;41.106;16.688;2023-02-28T14:49:44;21.40;;;9.15;;
69463;SDS011;56665;41.106;16.688;2023-02-28T14:52:53;12.63;;;7.28;;
69463;SDS011;56665;41.106;16.688;2023-02-28T14:55:58;10.82;;;6.20;;
69463;SDS011;56665;41.106;16.688;2023-02-28T14:59:04;14.97;;;6.83;;
69463;SDS011;56665;41.106;16.688;2023-02-28T15:02:26;10.60;;;5.80;;
69463;SDS011;56665;41.106;16.688;2023-02-28T15:05:34;14.40;;;6.60;;
69463;SDS011;56665;41.106;16.688;2023-02-28T15:08:39;14.90;;;6.10;;
69463;SDS011;56665;41.106;16.688;2023-02-28T15:11:45;18.67;;;9.55;;
69463;SDS011;56665;41.106;16.688;2023-02-28T15:14:51;17.07;;;8.57;;
69463;SDS011;56665;41.106;16.688;2023-02-28T15:17:56;11.07;;;6.20;;
69463;SDS011;56665;41.106;16.688;2023-02-28T15:21:04;12.38;;;7.40;;
69463;SDS011;56665;41.106;16.688;2023-02-28T15:27:27;13.90;;;6.25;;
69463;SDS011;56665;41.106;16.688;2023-02-28T15:30:35;13.67;;;5.87;;
69463;SDS011;56665;41.106;16.688;2023-02-28T15:33:40;12.95;;;6.38;;
69463;SDS011;56665;41.106;16.688;2023-02-28T15:36:56;13.48;;;5.97;;
69463;SDS011;56665;41.106;16.688;2023-02-28T15:40:21;16.52;;;6.10;;
69463;SDS011;56665;41.106;16.688;2023-02-28T15:43:30;15.20;;;7.40;;
69463;SDS011;56665;41.106;16.688;2023-02-28T15:46:45;13.60;;;7.43;;
69463;SDS011;56665;41.106;16.688;2023-02-28T15:50:10;15.50;;;7.40;;
69463;SDS011;56665;41.106;16.688;2023-02-28T15:53:19;13.55;;;6.70;;
69463;SDS011;56665;41.106;16.688;2023-02-28T15:56:34;14.95;;;7.28;;
69463;SDS011;56665;41.106;16.688;2023-02-28T15:59:45;9.63;;;6.38;;
69463;SDS011;56665;41.106;16.688;2023-02-28T16:03:00;13.17;;;6.77;;
69463;SDS011;56665;41.106;16.688;2023-02-28T16:09:20;13.85;;;6.72;;
69463;SDS011;56665;41.106;16.688;2023-02-28T16:12:28;12.75;;;6.82;;
69463;SDS011;56665;41.106;16.688;2023-02-28T16:15:35;13.65;;;8.65;;
69463;SDS011;56665;41.106;16.688;2023-02-28T16:18:45;16.37;;;7.93;;
69463;SDS011;56665;41.106;16.688;2023-02-28T16:21:50;12.85;;;7.30;;
69463;SDS011;56665;41.106;16.688;2023-02-28T16:24:54;11.93;;;7.00;;
69463;SDS011;56665;41.106;16.688;2023-02-28T16:27:58;17.20;;;8.77;;
69463;SDS011;56665;41.106;16.688;2023-02-28T16:31:05;14.82;;;8.43;;
69463;SDS011;56665;41.106;16.688;2023-02-28T16:34:10;17.07;;;8.23;;
69463;SDS011;56665;41.106;16.688;2023-02-28T16:37:17;14.60;;;7.70;;
69463;SDS011;56665;41.106;16.688;2023-02-28T16:40:22;16.02;;;7.30;;
69463;SDS011;56665;41.106;16.688;2023-02-28T16:43:28;18.17;;;9.32;;
69463;SDS011;56665;41.106;16.688;2023-02-28T16:46:33;15.35;;;8.85;;
69463;SDS011;56665;41.106;16.688;2023-02-28T16:49:38;18.13;;;8.03;;
69463;SDS011;56665;41.106;16.688;2023-02-28T16:52:45;20.65;;;10.10;;
69463;SDS011;56665;41.106;16.688;2023-02-28T16:55:49;18.88;;;10.07;;
69463;SDS011;56665;41.106;16.688;2023-02-28T16:58:55;17.90;;;8.40;;
69463;SDS011;56665;41.106;16.688;2023-02-28T17:02:07;16.42;;;8.35;;
69463;SDS011;56665;41.106;16.688;2023-02-28T17:05:16;17.63;;;9.23;;
69463;SDS011;56665;41.106;16.688;2023-02-28T17:08:20;17.17;;;9.68;;
69463;SDS011;56665;41.106;16.688;2023-02-28T17:11:24;15.52;;;9.85;;
69463;SDS011;56665;41.106;16.688;2023-02-28T17:14:30;14.52;;;8.27;;
69463;SDS011;56665;41.106;16.688;2023-02-28T17:17:34;15.02;;;7.65;;
69463;SDS011;56665;41.106;16.688;2023-02-28T17:20:38;13.30;;;7.33;;
69463;SDS011;56665;41.106;16.688;2023-02-28T17:23:42;13.13;;;8.10;;
69463;SDS011;56665;41.106;16.688;2023-02-28T17:26:46;18.70;;;9.27;;
69463;SDS011;56665;41.106;16.688;2023-02-28T17:29:50;15.38;;;7.50;;
69463;SDS011;56665;41.106;16.688;2023-02-28T17:32:55;15.40;;;8.45;;
69463;SDS011;56665;41.106;16.688;2023-02-28T17:35:59;16.37;;;7.97;;
69463;SDS011;56665;41.106;16.688;2023-02-28T17:39:04;18.23;;;8.65;;
69463;SDS011;56665;41.106;16.688;2023-02-28T17:42:18;20.90;;;9.05;;
69463;SDS011;56665;41.106;16.688;2023-02-28T17:45:22;22.95;;;11.38;;
69463;SDS011;56665;41.106;16.688;2023-02-28T17:48:25;19.17;;;10.38;;
69463;SDS011;56665;41.106;16.688;2023-02-28T17:51:30;25.83;;;10.97;;
69463;SDS011;56665;41.106;16.688;2023-02-28T17:54:34;31.38;;;11.68;;
69463;SDS011;56665;41.106;16.688;2023-02-28T17:57:38;28.35;;;12.18;;
69463;SDS011;56665;41.106;16.688;2023-02-28T18:00:45;28.17;;;13.15;;
69463;SDS011;56665;41.106;16.688;2023-02-28T18:03:50;26.40;;;12.38;;
69463;SDS011;56665;41.106;16.688;2023-02-28T18:06:54;26.37;;;11.37;;
69463;SDS011;56665;41.106;16.688;2023-02-28T18:09:59;19.52;;;9.98;;
69463;SDS011;56665;41.106;16.688;2023-02-28T18:13:04;23.02;;;10.20;;
69463;SDS011;56665;41.106;16.688;2023-02-28T18:16:09;20.60;;;10.18;;
69463;SDS011;56665;41.106;16.688;2023-02-28T18:19:13;28.55;;;10.40;;
69463;SDS011;56665;41.106;16.688;2023-02-28T18:22:20;19.83;;;8.43;;
69463;SDS011;56665;41.106;16.688;2023-02-28T18:25:24;21.77;;;8.18;;
69463;SDS011;56665;41.106;16.688;2023-02-28T18:28:29;19.05;;;7.93;;
69463;SDS011;56665;41.106;16.688;2023-02-28T18:31:38;14.98;;;7.28;;
69463;SDS011;56665;41.106;16.688;2023-02-28T18:34:42;14.45;;;7.47;;
69463;SDS011;56665;41.106;16.688;2023-02-28T18:37:47;14.00;;;6.87;;
69463;SDS011;56665;41.106;16.688;2023-02-28T18:40:52;15.27;;;6.53;;
69463;SDS011;56665;41.106;16.688;2023-02-28T18:43:58;11.65;;;6.03;;
69463;SDS011;56665;41.106;16.688;2023-02-28T18:47:06;13.38;;;5.93;;
69463;SDS011;56665;41.106;16.688;2023-02-28T18:50:10;11.63;;;5.30;;
69463;SDS011;56665;41.106;16.688;2023-02-28T18:53:14;11.63;;;5.90;;
69463;SDS011;56665;41.106;16.688;2023-02-28T18:56:19;11.98;;;5.80;;
69463;SDS011;56665;41.106;16.688;2023-02-28T18:59:26;14.15;;;6.00;;
69463;SDS011;56665;41.106;16.688;2023-02-28T19:02:30;21.02;;;7.72;;
69463;SDS011;56665;41.106;16.688;2023-02-28T19:05:35;22.75;;;8.65;;
69463;SDS011;56665;41.106;16.688;2023-02-28T19:08:40;14.63;;;6.07;;
69463;SDS011;56665;41.106;16.688;2023-02-28T19:11:44;15.35;;;5.90;;
69463;SDS011;56665;41.106;16.688;2023-02-28T19:14:48;16.45;;;7.13;;
69463;SDS011;56665;41.106;16.688;2023-02-28T19:17:52;12.88;;;5.80;;
69463;SDS011;56665;41.106;16.688;2023-02-28T19:20:57;14.00;;;6.60;;
69463;SDS011;56665;41.106;16.688;2023-02-28T19:24:03;12.63;;;6.90;;
69463;SDS011;56665;41.106;16.688;2023-02-28T19:27:07;18.65;;;9.80;;
69463;SDS011;56665;41.106;16.688;2023-02-28T19:30:12;18.20;;;7.93;;
69463;SDS011;56665;41.106;16.688;2023-02-28T19:33:16;15.68;;;7.50;;
69463;SDS011;56665;41.106;16.688;2023-02-28T19:36:21;14.20;;;6.70;;
69463;SDS011;56665;41.106;16.688;2023-02-28T19:39:27;15.93;;;7.20;;
69463;SDS011;56665;41.106;16.688;2023-02-28T19:42:30;17.02;;;6.72;;
69463;SDS011;56665;41.106;16.688;2023-02-28T19:45:36;16.95;;;6.75;;
69463;SDS011;56665;41.106;16.688;2023-02-28T19:48:40;12.60;;;6.05;;
69463;SDS011;56665;41.106;16.688;2023-02-28T19:51:48;15.85;;;8.35;;
69463;SDS011;56665;41.106;16.688;2023-02-28T19:54:52;17.50;;;8.07;;
69463;SDS011;56665;41.106;16.688;2023-02-28T19:58:01;20.02;;;8.38;;
69463;SDS011;56665;41.106;16.688;2023-02-28T20:01:09;12.38;;;5.78;;
69463;SDS011;56665;41.106;16.688;2023-02-28T20:04:24;18.50;;;8.25;;
69463;SDS011;56665;41.106;16.688;2023-02-28T20:07:29;19.35;;;7.93;;
69463;SDS011;56665;41.106;16.688;2023-02-28T20:10:34;15.73;;;5.83;;
69463;SDS011;56665;41.106;16.688;2023-02-28T20:13:39;14.15;;;5.75;;
69463;SDS011;56665;41.106;16.688;2023-02-28T20:16:47;16.90;;;6.18;;